Terminal Aerodrome Forecast
Issued by NWS

Home | Current Version | Previous Version | Text Only | Print | Product List | Glossary On
Versions: 1 2 3 4 5 6 7 8 9 10 11 12 13 14 15 16 17 18
000
FTUS43 KDTX 281720
TAFMBS
TAF
KMBS 281720Z 2818/2918 23015G22KT P6SM FEW035
     FM282200 24009KT P6SM SCT060 OVC100
     FM290400 32005KT P6SM -SHRA OVC040
     FM290800 01008KT P6SM BKN022
     FM291200 05012KT P6SM SCT022 BKN040=

USA.gov is the U.S. government's official web portal to all federal, state and local government web resources and services.